sensor_id;sensor_type;location;lat;lon;timestamp;temperature;humidity
23477;DHT22;11911;50.768;13.150;2022-09-29T03:53:12;2.50;96.30
23477;DHT22;11911;50.768;13.150;2022-09-29T03:55:38;2.50;96.30
23477;DHT22;11911;50.768;13.150;2022-09-29T03:58:04;2.50;96.30
23477;DHT22;11911;50.768;13.150;2022-09-29T04:00:30;2.50;96.30
23477;DHT22;11911;50.768;13.150;2022-09-29T04:02:55;2.50;96.30
23477;DHT22;11911;50.768;13.150;2022-09-29T04:05:21;2.40;96.30
23477;DHT22;11911;50.768;13.150;2022-09-29T04:07:47;2.50;96.30
23477;DHT22;11911;50.768;13.150;2022-09-29T04:10:13;2.50;96.30
23477;DHT22;11911;50.768;13.150;2022-09-29T04:12:39;2.50;96.30
23477;DHT22;11911;50.768;13.150;2022-09-29T04:15:05;2.40;96.30
23477;DHT22;11911;50.768;13.150;2022-09-29T04:17:31;2.40;96.30
23477;DHT22;11911;50.768;13.150;2022-09-29T04:19:56;2.30;96.30
23477;DHT22;11911;50.768;13.150;2022-09-29T04:22:22;2.30;96.30
23477;DHT22;11911;50.768;13.150;2022-09-29T04:24:47;2.30;96.30
23477;DHT22;11911;50.768;13.150;2022-09-29T04:27:14;2.30;96.30
23477;DHT22;11911;50.768;13.150;2022-09-29T04:29:40;2.20;96.30
23477;DHT22;11911;50.768;13.150;2022-09-29T04:32:06;2.10;96.30
23477;DHT22;11911;50.768;13.150;2022-09-29T04:34:32;2.10;96.30
23477;DHT22;11911;50.768;13.150;2022-09-29T04:36:57;2.20;96.30
23477;DHT22;11911;50.768;13.150;2022-09-29T04:39:23;2.20;96.30
23477;DHT22;11911;50.768;13.150;2022-09-29T04:41:48;2.30;96.30
23477;DHT22;11911;50.768;13.150;2022-09-29T04:44:14;2.20;96.30
23477;DHT22;11911;50.768;13.150;2022-09-29T04:46:40;2.10;96.30
23477;DHT22;11911;50.768;13.150;2022-09-29T04:49:05;2.10;96.30
23477;DHT22;11911;50.768;13.150;2022-09-29T04:51:31;2.10;96.30
23477;DHT22;11911;50.768;13.150;2022-09-29T04:53:57;2.10;96.30
23477;DHT22;11911;50.768;13.150;2022-09-29T04:56:23;2.10;96.30
23477;DHT22;11911;50.768;13.150;2022-09-29T04:58:49;2.10;96.30
23477;DHT22;11911;50.768;13.150;2022-09-29T05:01:14;2.20;96.30
23477;DHT22;11911;50.768;13.150;2022-09-29T10:01:20;14.40;96.30
23477;DHT22;11911;50.768;13.150;2022-09-29T10:03:46;14.20;96.30
23477;DHT22;11911;50.768;13.150;2022-09-29T10:06:12;14.10;96.30
23477;DHT22;11911;50.768;13.150;2022-09-29T10:08:39;14.00;96.30
23477;DHT22;11911;50.768;13.150;2022-09-29T10:11:28;13.80;96.30
23477;DHT22;11911;50.768;13.150;2022-09-29T10:14:03;13.50;96.30
23477;DHT22;11911;50.768;13.150;2022-09-29T10:16:44;13.20;96.30
23477;DHT22;11911;50.768;13.150;2022-09-29T10:19:10;13.00;96.30
23477;DHT22;11911;50.768;13.150;2022-09-29T10:21:41;12.70;96.30
23477;DHT22;11911;50.768;13.150;2022-09-29T10:24:26;12.60;96.30
23477;DHT22;11911;50.768;13.150;2022-09-29T10:26:54;12.50;96.30
23477;DHT22;11911;50.768;13.150;2022-09-29T10:29:35;12.60;96.30
23477;DHT22;11911;50.768;13.150;2022-09-29T10:32:15;12.60;96.30
23477;DHT22;11911;50.768;13.150;2022-09-29T10:34:49;12.40;96.30
23477;DHT22;11911;50.768;13.150;2022-09-29T10:39:48;12.70;96.30
23477;DHT22;11911;50.768;13.150;2022-09-29T10:42:35;12.80;96.30
23477;DHT22;11911;50.768;13.150;2022-09-29T10:45:17;12.70;96.30
23477;DHT22;11911;50.768;13.150;2022-09-29T10:48:12;12.80;96.30
23477;DHT22;11911;50.768;13.150;2022-09-29T10:55:59;12.70;96.30
23477;DHT22;11911;50.768;13.150;2022-09-29T10:58:28;12.60;96.30
23477;DHT22;11911;50.768;13.150;2022-09-29T11:01:16;12.80;96.30
23477;DHT22;11911;50.768;13.150;2022-09-29T11:03:55;12.80;96.30
23477;DHT22;11911;50.768;13.150;2022-09-29T11:06:38;13.20;96.30
23477;DHT22;11911;50.768;13.150;2022-09-29T11:17:01;13.60;96.30
23477;DHT22;11911;50.768;13.150;2022-09-29T11:19:28;14.30;96.30
23477;DHT22;11911;50.768;13.150;2022-09-29T11:42:01;13.90;96.30
23477;DHT22;11911;50.768;13.150;2022-09-29T11:50:22;13.30;96.30
23477;DHT22;11911;50.768;13.150;2022-09-29T11:53:13;13.80;96.30
23477;DHT22;11911;50.768;13.150;2022-09-29T11:58:38;14.60;96.30
23477;DHT22;11911;50.768;13.150;2022-09-29T12:01:20;14.60;96.30
23477;DHT22;11911;50.768;13.150;2022-09-29T12:09:14;14.20;96.30
23477;DHT22;11911;50.768;13.150;2022-09-29T12:12:09;13.80;96.30
23477;DHT22;11911;50.768;13.150;2022-09-29T12:17:29;14.40;96.30
23477;DHT22;11911;50.768;13.150;2022-09-29T12:22:54;14.30;96.30
23477;DHT22;11911;50.768;13.150;2022-09-29T12:25:24;14.20;96.30
23477;DHT22;11911;50.768;13.150;2022-09-29T12:28:11;14.10;96.30
23477;DHT22;11911;50.768;13.150;2022-09-29T12:33:51;14.10;96.30
23477;DHT22;11911;50.768;13.150;2022-09-29T12:36:32;14.20;96.30
23477;DHT22;11911;50.768;13.150;2022-09-29T12:42:40;14.80;96.30
23477;DHT22;11911;50.768;13.150;2022-09-29T12:45:45;15.40;96.30
23477;DHT22;11911;50.768;13.150;2022-09-29T12:51:22;14.90;96.30
23477;DHT22;11911;50.768;13.150;2022-09-29T12:57:27;14.40;96.30
23477;DHT22;11911;50.768;13.150;2022-09-29T12:59:52;14.30;96.30
23477;DHT22;11911;50.768;13.150;2022-09-29T13:10:25;14.20;96.30
23477;DHT22;11911;50.768;13.150;2022-09-29T13:27:21;15.00;96.30
23477;DHT22;11911;50.768;13.150;2022-09-29T13:32:45;15.80;96.30
23477;DHT22;11911;50.768;13.150;2022-09-29T13:35:18;15.70;96.30
23477;DHT22;11911;50.768;13.150;2022-09-29T13:38:00;15.70;96.30
23477;DHT22;11911;50.768;13.150;2022-09-29T13:40:28;15.50;96.30
23477;DHT22;11911;50.768;13.150;2022-09-29T13:42:58;15.20;96.30
23477;DHT22;11911;50.768;13.150;2022-09-29T13:47:57;14.50;96.30
23477;DHT22;11911;50.768;13.150;2022-09-29T13:50:39;14.80;96.30
23477;DHT22;11911;50.768;13.150;2022-09-29T13:58:31;15.00;96.30
23477;DHT22;11911;50.768;13.150;2022-09-29T14:01:00;14.90;96.30
23477;DHT22;11911;50.768;13.150;2022-09-29T14:06:05;14.10;96.30
23477;DHT22;11911;50.768;13.150;2022-09-29T14:08:43;13.70;96.30
23477;DHT22;11911;50.768;13.150;2022-09-29T14:11:49;13.50;96.30
23477;DHT22;11911;50.768;13.150;2022-09-29T14:17:30;13.30;96.30
23477;DHT22;11911;50.768;13.150;2022-09-29T14:20:15;13.40;96.30
23477;DHT22;11911;50.768;13.150;2022-09-29T14:33:50;13.30;96.30
23477;DHT22;11911;50.768;13.150;2022-09-29T14:38:41;13.40;96.30
23477;DHT22;11911;50.768;13.150;2022-09-29T14:52:19;13.20;96.30
23477;DHT22;11911;50.768;13.150;2022-09-29T15:00:25;12.90;96.30
23477;DHT22;11911;50.768;13.150;2022-09-29T15:02:55;12.80;96.30
23477;DHT22;11911;50.768;13.150;2022-09-29T15:05:32;12.70;96.30
23477;DHT22;11911;50.768;13.150;2022-09-29T15:07:59;12.60;96.30
23477;DHT22;11911;50.768;13.150;2022-09-29T15:10:31;12.50;96.30
23477;DHT22;11911;50.768;13.150;2022-09-29T15:13:24;12.40;96.30
23477;DHT22;11911;50.768;13.150;2022-09-29T15:21:25;12.20;96.30
23477;DHT22;11911;50.768;13.150;2022-09-29T15:26:47;11.70;96.30
23477;DHT22;11911;50.768;13.150;2022-09-29T15:29:14;11.60;96.30
23477;DHT22;11911;50.768;13.150;2022-09-29T15:31:44;11.60;96.30
23477;DHT22;11911;50.768;13.150;2022-09-29T15:34:21;11.50;96.30
23477;DHT22;11911;50.768;13.150;2022-09-29T15:36:51;11.30;96.30
23477;DHT22;11911;50.768;13.150;2022-09-29T15:42:21;11.10;96.30
23477;DHT22;11911;50.768;13.150;2022-09-29T15:44:58;11.00;96.30
23477;DHT22;11911;50.768;13.150;2022-09-29T15:47:33;10.80;96.30
23477;DHT22;11911;50.768;13.150;2022-09-29T15:50:04;10.60;96.30
23477;DHT22;11911;50.768;13.150;2022-09-29T15:52:37;10.30;96.30
23477;DHT22;11911;50.768;13.150;2022-09-29T15:55:03;10.20;96.30
23477;DHT22;11911;50.768;13.150;2022-09-29T16:02:51;10.00;96.30
23477;DHT22;11911;50.768;13.150;2022-09-29T16:05:22;9.90;96.30
23477;DHT22;11911;50.768;13.150;2022-09-29T16:07:55;9.80;96.30
23477;DHT22;11911;50.768;13.150;2022-09-29T16:10:27;9.60;96.30
23477;DHT22;11911;50.768;13.150;2022-09-29T16:13:01;9.50;96.30
23477;DHT22;11911;50.768;13.150;2022-09-29T16:15:34;9.50;96.30
23477;DHT22;11911;50.768;13.150;2022-09-29T16:18:05;9.40;96.30
23477;DHT22;11911;50.768;13.150;2022-09-29T16:20:33;9.30;96.30
23477;DHT22;11911;50.768;13.150;2022-09-29T16:23:24;9.20;96.30
23477;DHT22;11911;50.768;13.150;2022-09-29T16:26:10;9.10;96.30
23477;DHT22;11911;50.768;13.150;2022-09-29T16:31:26;9.10;96.30
23477;DHT22;11911;50.768;13.150;2022-09-29T16:33:54;9.00;96.30
23477;DHT22;11911;50.768;13.150;2022-09-29T16:36:25;9.00;96.30
23477;DHT22;11911;50.768;13.150;2022-09-29T16:38:52;8.90;96.30
23477;DHT22;11911;50.768;13.150;2022-09-29T16:41:35;8.80;96.30
23477;DHT22;11911;50.768;13.150;2022-09-29T16:46:42;8.60;96.30
23477;DHT22;11911;50.768;13.150;2022-09-29T16:50:02;8.60;96.30
23477;DHT22;11911;50.768;13.150;2022-09-29T16:52:16;8.60;96.30
23477;DHT22;11911;50.768;13.150;2022-09-29T16:54:43;8.50;96.30
23477;DHT22;11911;50.768;13.150;2022-09-29T16:57:31;8.40;96.30
23477;DHT22;11911;50.768;13.150;2022-09-29T17:00:09;8.30;96.30
23477;DHT22;11911;50.768;13.150;2022-09-29T17:02:36;8.20;96.30
23477;DHT22;11911;50.768;13.150;2022-09-29T17:05:02;8.30;96.30
23477;DHT22;11911;50.768;13.150;2022-09-29T17:07:30;8.30;96.30
23477;DHT22;11911;50.768;13.150;2022-09-29T17:09:57;8.20;96.30
23477;DHT22;11911;50.768;13.150;2022-09-29T17:12:24;8.10;96.30
23477;DHT22;11911;50.768;13.150;2022-09-29T17:14:51;8.10;96.30
23477;DHT22;11911;50.768;13.150;2022-09-29T17:17:19;8.00;96.30
23477;DHT22;11911;50.768;13.150;2022-09-29T17:19:47;8.00;96.30
23477;DHT22;11911;50.768;13.150;2022-09-29T17:22:31;8.00;96.30
23477;DHT22;11911;50.768;13.150;2022-09-29T17:24:59;7.90;96.30
23477;DHT22;11911;50.768;13.150;2022-09-29T17:27:25;7.80;96.30
23477;DHT22;11911;50.768;13.150;2022-09-29T17:30:12;7.80;96.30
23477;DHT22;11911;50.768;13.150;2022-09-29T17:32:45;7.70;96.30
23477;DHT22;11911;50.768;13.150;2022-09-29T17:35:12;7.70;96.30
23477;DHT22;11911;50.768;13.150;2022-09-29T17:37:39;7.60;96.30
23477;DHT22;11911;50.768;13.150;2022-09-29T17:40:28;7.60;96.30
23477;DHT22;11911;50.768;13.150;2022-09-29T17:42:54;7.60;96.30
23477;DHT22;11911;50.768;13.150;2022-09-29T17:45:23;7.50;96.30
23477;DHT22;11911;50.768;13.150;2022-09-29T17:47:50;7.50;96.30
23477;DHT22;11911;50.768;13.150;2022-09-29T17:50:52;7.50;96.30
23477;DHT22;11911;50.768;13.150;2022-09-29T17:53:10;7.70;96.30
23477;DHT22;11911;50.768;13.150;2022-09-29T17:55:40;7.80;96.30
23477;DHT22;11911;50.768;13.150;2022-09-29T17:58:06;7.90;96.30
23477;DHT22;11911;50.768;13.150;2022-09-29T18:00:34;7.90;96.30
23477;DHT22;11911;50.768;13.150;2022-09-29T18:03:03;7.90;96.30
23477;DHT22;11911;50.768;13.150;2022-09-29T18:05:29;7.80;96.30
23477;DHT22;11911;50.768;13.150;2022-09-29T18:07:57;7.80;96.30
23477;DHT22;11911;50.768;13.150;2022-09-29T18:10:47;7.70;96.30
23477;DHT22;11911;50.768;13.150;2022-09-29T18:13:13;7.70;96.30
23477;DHT22;11911;50.768;13.150;2022-09-29T18:15:39;7.60;96.30
23477;DHT22;11911;50.768;13.150;2022-09-29T18:18:06;7.60;96.30
23477;DHT22;11911;50.768;13.150;2022-09-29T18:20:33;7.50;96.30
23477;DHT22;11911;50.768;13.150;2022-09-29T18:23:00;7.30;96.30
23477;DHT22;11911;50.768;13.150;2022-09-29T18:25:28;7.20;96.30
23477;DHT22;11911;50.768;13.150;2022-09-29T18:27:54;7.10;96.30
23477;DHT22;11911;50.768;13.150;2022-09-29T18:30:25;7.00;96.30
23477;DHT22;11911;50.768;13.150;2022-09-29T18:32:53;6.90;96.30
23477;DHT22;11911;50.768;13.150;2022-09-29T18:35:22;6.80;96.30
23477;DHT22;11911;50.768;13.150;2022-09-29T18:37:50;6.80;96.30
23477;DHT22;11911;50.768;13.150;2022-09-29T18:40:17;6.70;96.30
23477;DHT22;11911;50.768;13.150;2022-09-29T18:42:44;6.70;96.30
23477;DHT22;11911;50.768;13.150;2022-09-29T18:45:12;6.70;96.30
23477;DHT22;11911;50.768;13.150;2022-09-29T18:47:40;6.70;96.30
23477;DHT22;11911;50.768;13.150;2022-09-29T18:50:13;6.70;96.30
23477;DHT22;11911;50.768;13.150;2022-09-29T18:52:39;6.70;96.30
23477;DHT22;11911;50.768;13.150;2022-09-29T18:55:05;6.80;96.30
23477;DHT22;11911;50.768;13.150;2022-09-29T18:57:31;6.80;96.30
23477;DHT22;11911;50.768;13.150;2022-09-29T18:59:56;6.80;96.30
23477;DHT22;11911;50.768;13.150;2022-09-29T19:02:22;6.90;96.30
23477;DHT22;11911;50.768;13.150;2022-09-29T19:04:50;6.90;96.30
23477;DHT22;11911;50.768;13.150;2022-09-29T19:07:17;6.90;96.30
23477;DHT22;11911;50.768;13.150;2022-09-29T19:09:44;6.90;96.30
23477;DHT22;11911;50.768;13.150;2022-09-29T19:12:09;6.90;96.30
23477;DHT22;11911;50.768;13.150;2022-09-29T19:14:36;6.80;96.30
23477;DHT22;11911;50.768;13.150;2022-09-29T19:17:02;6.80;96.30
23477;DHT22;11911;50.768;13.150;2022-09-29T19:19:27;6.70;96.30
23477;DHT22;11911;50.768;13.150;2022-09-29T19:21:53;6.70;96.30
23477;DHT22;11911;50.768;13.150;2022-09-29T19:24:19;6.70;96.30
23477;DHT22;11911;50.768;13.150;2022-09-29T19:26:46;6.70;96.30
23477;DHT22;11911;50.768;13.150;2022-09-29T19:29:12;6.60;96.30
23477;DHT22;11911;50.768;13.150;2022-09-29T19:31:37;6.60;96.30
23477;DHT22;11911;50.768;13.150;2022-09-29T19:34:03;6.60;96.30
23477;DHT22;11911;50.768;13.150;2022-09-29T19:36:28;6.60;96.30
23477;DHT22;11911;50.768;13.150;2022-09-29T19:38:54;6.50;96.30
23477;DHT22;11911;50.768;13.150;2022-09-29T19:41:23;6.50;96.30
23477;DHT22;11911;50.768;13.150;2022-09-29T19:43:48;6.40;96.30
23477;DHT22;11911;50.768;13.150;2022-09-29T19:46:15;6.50;96.30
23477;DHT22;11911;50.768;13.150;2022-09-29T19:48:41;6.50;96.30
23477;DHT22;11911;50.768;13.150;2022-09-29T19:51:08;6.50;96.30
23477;DHT22;11911;50.768;13.150;2022-09-29T19:53:54;6.50;96.30
23477;DHT22;11911;50.768;13.150;2022-09-29T19:56:39;6.50;96.30
23477;DHT22;11911;50.768;13.150;2022-09-29T19:59:05;6.50;96.30
23477;DHT22;11911;50.768;13.150;2022-09-29T20:01:31;6.50;96.30
23477;DHT22;11911;50.768;13.150;2022-09-29T20:03:57;6.50;96.30
23477;DHT22;11911;50.768;13.150;2022-09-29T20:06:22;6.60;96.30
23477;DHT22;11911;50.768;13.150;2022-09-29T20:08:48;6.60;96.30
23477;DHT22;11911;50.768;13.150;2022-09-29T20:11:13;6.70;96.30
23477;DHT22;11911;50.768;13.150;2022-09-29T20:13:39;6.70;96.30
23477;DHT22;11911;50.768;13.150;2022-09-29T20:16:06;6.70;96.30
23477;DHT22;11911;50.768;13.150;2022-09-29T20:18:32;6.70;96.30
23477;DHT22;11911;50.768;13.150;2022-09-29T20:21:05;6.70;96.30
23477;DHT22;11911;50.768;13.150;2022-09-29T20:23:31;6.90;96.30
23477;DHT22;11911;50.768;13.150;2022-09-29T20:26:01;7.00;96.30
23477;DHT22;11911;50.768;13.150;2022-09-29T20:28:26;7.10;96.30
23477;DHT22;11911;50.768;13.150;2022-09-29T20:30:57;7.30;96.30
23477;DHT22;11911;50.768;13.150;2022-09-29T20:33:24;7.30;96.30
23477;DHT22;11911;50.768;13.150;2022-09-29T20:35:49;7.40;96.30
23477;DHT22;11911;50.768;13.150;2022-09-29T20:38:15;7.40;96.30
23477;DHT22;11911;50.768;13.150;2022-09-29T20:40:40;7.40;96.30
23477;DHT22;11911;50.768;13.150;2022-09-29T20:43:06;7.40;96.30
23477;DHT22;11911;50.768;13.150;2022-09-29T20:45:31;7.30;96.30
23477;DHT22;11911;50.768;13.150;2022-09-29T20:47:57;7.30;96.30
23477;DHT22;11911;50.768;13.150;2022-09-29T20:50:22;7.30;96.30
23477;DHT22;11911;50.768;13.150;2022-09-29T20:52:48;7.20;96.30
23477;DHT22;11911;50.768;13.150;2022-09-29T20:55:13;7.20;96.30
23477;DHT22;11911;50.768;13.150;2022-09-29T20:57:39;7.10;96.30
23477;DHT22;11911;50.768;13.150;2022-09-29T21:00:05;7.10;96.30
23477;DHT22;11911;50.768;13.150;2022-09-29T21:02:33;7.10;96.30
23477;DHT22;11911;50.768;13.150;2022-09-29T21:04:58;7.00;96.30
23477;DHT22;11911;50.768;13.150;2022-09-29T21:07:24;7.00;96.30
23477;DHT22;11911;50.768;13.150;2022-09-29T21:10:03;6.90;96.30
23477;DHT22;11911;50.768;13.150;2022-09-29T21:12:29;6.90;96.30
23477;DHT22;11911;50.768;13.150;2022-09-29T21:14:56;6.80;96.30
23477;DHT22;11911;50.768;13.150;2022-09-29T21:17:21;6.70;96.30
23477;DHT22;11911;50.768;13.150;2022-09-29T21:19:47;6.60;96.30
23477;DHT22;11911;50.768;13.150;2022-09-29T21:22:13;6.60;96.30
23477;DHT22;11911;50.768;13.150;2022-09-29T21:24:38;6.60;96.30
23477;DHT22;11911;50.768;13.150;2022-09-29T21:27:06;6.50;96.30
23477;DHT22;11911;50.768;13.150;2022-09-29T21:29:32;6.50;96.30
23477;DHT22;11911;50.768;13.150;2022-09-29T21:31:57;6.50;96.30
23477;DHT22;11911;50.768;13.150;2022-09-29T21:34:23;6.50;96.30
23477;DHT22;11911;50.768;13.150;2022-09-29T21:36:48;6.50;96.30
23477;DHT22;11911;50.768;13.150;2022-09-29T21:39:14;6.60;96.30
23477;DHT22;11911;50.768;13.150;2022-09-29T21:41:42;6.60;96.30
23477;DHT22;11911;50.768;13.150;2022-09-29T21:44:17;6.50;96.30
23477;DHT22;11911;50.768;13.150;2022-09-29T21:46:43;6.50;96.30
23477;DHT22;11911;50.768;13.150;2022-09-29T21:49:10;6.50;96.30
23477;DHT22;11911;50.768;13.150;2022-09-29T21:51:39;6.50;96.30
23477;DHT22;11911;50.768;13.150;2022-09-29T21:54:06;6.50;96.30
23477;DHT22;11911;50.768;13.150;2022-09-29T21:56:36;6.50;96.30
23477;DHT22;11911;50.768;13.150;2022-09-29T21:59:05;6.50;96.30
23477;DHT22;11911;50.768;13.150;2022-09-29T22:01:30;6.50;96.30
23477;DHT22;11911;50.768;13.150;2022-09-29T22:03:56;6.40;96.30
23477;DHT22;11911;50.768;13.150;2022-09-29T22:06:24;6.40;96.30
23477;DHT22;11911;50.768;13.150;2022-09-29T22:08:51;6.40;96.30
23477;DHT22;11911;50.768;13.150;2022-09-29T22:11:20;6.40;96.30
23477;DHT22;11911;50.768;13.150;2022-09-29T22:13:50;6.40;96.30
23477;DHT22;11911;50.768;13.150;2022-09-29T22:16:17;6.40;96.30
23477;DHT22;11911;50.768;13.150;2022-09-29T22:18:43;6.40;96.30
23477;DHT22;11911;50.768;13.150;2022-09-29T22:21:11;6.40;96.30
23477;DHT22;11911;50.768;13.150;2022-09-29T22:23:37;6.40;96.30
23477;DHT22;11911;50.768;13.150;2022-09-29T22:26:03;6.40;96.30
23477;DHT22;11911;50.768;13.150;2022-09-29T22:28:29;6.50;96.30
23477;DHT22;11911;50.768;13.150;2022-09-29T22:31:02;6.50;96.30
23477;DHT22;11911;50.768;13.150;2022-09-29T22:33:28;6.60;96.30
23477;DHT22;11911;50.768;13.150;2022-09-29T22:35:55;6.60;96.30
23477;DHT22;11911;50.768;13.150;2022-09-29T22:38:21;6.60;96.30
23477;DHT22;11911;50.768;13.150;2022-09-29T22:40:47;6.60;96.30
23477;DHT22;11911;50.768;13.150;2022-09-29T22:43:13;6.60;96.30
23477;DHT22;11911;50.768;13.150;2022-09-29T22:45:39;6.60;96.30
23477;DHT22;11911;50.768;13.150;2022-09-29T22:48:04;6.60;96.30
23477;DHT22;11911;50.768;13.150;2022-09-29T22:50:30;6.70;96.30
23477;DHT22;11911;50.768;13.150;2022-09-29T22:52:57;6.60;96.30
23477;DHT22;11911;50.768;13.150;2022-09-29T22:55:28;6.60;96.30
23477;DHT22;11911;50.768;13.150;2022-09-29T22:57:55;6.60;96.30
23477;DHT22;11911;50.768;13.150;2022-09-29T23:00:22;6.50;96.30
23477;DHT22;11911;50.768;13.150;2022-09-29T23:02:49;6.50;96.30
23477;DHT22;11911;50.768;13.150;2022-09-29T23:05:15;6.60;96.30
23477;DHT22;11911;50.768;13.150;2022-09-29T23:07:40;6.60;96.30
23477;DHT22;11911;50.768;13.150;2022-09-29T23:10:06;6.70;96.30
23477;DHT22;11911;50.768;13.150;2022-09-29T23:12:34;6.80;96.30
23477;DHT22;11911;50.768;13.150;2022-09-29T23:14:59;6.80;96.30
23477;DHT22;11911;50.768;13.150;2022-09-29T23:17:25;6.80;96.30
23477;DHT22;11911;50.768;13.150;2022-09-29T23:19:58;6.70;96.30
23477;DHT22;11911;50.768;13.150;2022-09-29T23:22:24;6.70;96.30
23477;DHT22;11911;50.768;13.150;2022-09-29T23:24:50;6.60;96.30
23477;DHT22;11911;50.768;13.150;2022-09-29T23:27:16;6.60;96.30
23477;DHT22;11911;50.768;13.150;2022-09-29T23:29:41;6.50;96.30
23477;DHT22;11911;50.768;13.150;2022-09-29T23:32:07;6.50;96.30
23477;DHT22;11911;50.768;13.150;2022-09-29T23:34:33;6.50;96.30
23477;DHT22;11911;50.768;13.150;2022-09-29T23:36:59;6.50;96.30
23477;DHT22;11911;50.768;13.150;2022-09-29T23:39:25;6.50;96.30
23477;DHT22;11911;50.768;13.150;2022-09-29T23:41:51;6.50;96.30
23477;DHT22;11911;50.768;13.150;2022-09-29T23:44:19;6.50;96.30
23477;DHT22;11911;50.768;13.150;2022-09-29T23:46:46;6.40;96.30
23477;DHT22;11911;50.768;13.150;2022-09-29T23:49:14;6.50;96.30
23477;DHT22;11911;50.768;13.150;2022-09-29T23:51:45;6.50;96.30
23477;DHT22;11911;50.768;13.150;2022-09-29T23:54:13;6.50;96.30
23477;DHT22;11911;50.768;13.150;2022-09-29T23:56:39;6.50;96.30
23477;DHT22;11911;50.768;13.150;2022-09-29T23:59:05;6.50;96.30
